Time;durP1;ratioP1;P1;durP2;ratioP2;P2;SDS_P1;SDS_P2;PMS_P1;PMS_P2;Temp;Humidity;BMP_temperature;BMP_pressure;BME280_temperature;BME280_humidity;BME280_pressure;Samples;Min_cycle;Max_cycle;Signal;HPM_P1;HPM_P2
2022/08/18 00:02:14;;;;;;;18.63;7.73;;;17.40;99.90;;;;;;4916532;29;19922;-70
2022/08/18 00:04:40;;;;;;;11.37;8.50;;;17.40;99.90;;;;;;4926877;28;20496;-70
2022/08/18 00:07:08;;;;;;;14.57;8.53;;;17.40;99.90;;;;;;4907059;28;20039;-70
2022/08/18 00:09:35;;;;;;;15.93;7.80;;;17.40;99.90;;;;;;4917950;28;20046;-70
2022/08/18 00:12:05;;;;;;;14.97;8.17;;;17.50;99.90;;;;;;4906898;28;20039;-70
2022/08/18 00:14:31;;;;;;;14.30;8.17;;;17.50;99.90;;;;;;4931216;28;20381;-70
2022/08/18 00:16:57;;;;;;;13.43;8.60;;;17.40;99.90;;;;;;4925644;28;20049;-70
2022/08/18 00:19:23;;;;;;;13.77;8.33;;;17.40;99.90;;;;;;4924127;29;20420;-70
2022/08/18 00:21:49;;;;;;;13.10;7.90;;;17.50;99.90;;;;;;4921912;29;20051;-70
2022/08/18 00:24:15;;;;;;;12.27;8.17;;;17.50;99.90;;;;;;4926738;29;20051;-70
2022/08/18 00:26:40;;;;;;;13.70;8.33;;;17.50;99.90;;;;;;4922637;29;20093;-70
2022/08/18 00:29:07;;;;;;;11.40;8.47;;;17.40;99.90;;;;;;4913628;29;20042;-70
2022/08/18 00:31:32;;;;;;;17.63;8.43;;;17.50;99.90;;;;;;4928316;29;20047;-70
2022/08/18 00:33:59;;;;;;;17.17;8.70;;;17.50;99.90;;;;;;4930006;29;20043;-70
2022/08/18 00:36:25;;;;;;;14.13;8.53;;;17.40;99.90;;;;;;4928979;28;20078;-70
2022/08/18 00:38:51;;;;;;;15.47;8.40;;;17.40;99.90;;;;;;4900726;29;20036;-70
2022/08/18 00:41:17;;;;;;;15.73;8.10;;;17.40;99.90;;;;;;4930568;29;20499;-70
2022/08/18 00:43:50;;;;;;;15.87;8.87;;;17.40;99.90;;;;;;4930491;28;20126;-70
2022/08/18 00:46:19;;;;;;;13.83;8.50;;;17.40;99.90;;;;;;4931131;29;20138;-70
2022/08/18 00:48:45;;;;;;;13.80;8.47;;;17.40;99.90;;;;;;4926959;29;20286;-70
2022/08/18 00:51:17;;;;;;;19.67;9.17;;;17.40;99.90;;;;;;4920969;29;20036;-70
2022/08/18 00:53:52;;;;;;;14.93;8.40;;;17.40;99.90;;;;;;4906778;29;20452;-70
2022/08/18 00:56:42;;;;;;;16.90;9.43;;;17.40;99.90;;;;;;4917049;28;20111;-70
2022/08/18 00:59:46;;;;;;;16.40;9.60;;;17.30;99.90;;;;;;4917882;29;20113;-70
2022/08/18 01:02:25;;;;;;;13.17;8.97;;;17.30;99.90;;;;;;4838565;29;20041;-70
2022/08/18 01:05:08;;;;;;;16.80;8.83;;;17.30;99.90;;;;;;4896788;28;20471;-70
2022/08/18 01:07:49;;;;;;;17.13;9.47;;;17.30;99.90;;;;;;4922907;29;20365;-70
2022/08/18 01:10:21;;;;;;;16.07;9.60;;;17.30;99.90;;;;;;4926640;29;20858;-70
2022/08/18 01:12:50;;;;;;;14.97;9.40;;;17.30;99.90;;;;;;4929658;28;20043;-70
2022/08/18 01:15:18;;;;;;;17.37;9.40;;;17.30;99.90;;;;;;4930408;29;20082;-70
2022/08/18 01:23:24;;;;;;;20.17;10.53;;;17.30;99.90;;;;;;4935943;28;20058;-70
2022/08/18 01:26:02;;;;;;;16.70;9.73;;;17.30;99.90;;;;;;4922511;29;20055;-70
2022/08/18 01:28:38;;;;;;;14.17;9.87;;;17.30;99.90;;;;;;4942468;28;20048;-70
2022/08/18 01:31:05;;;;;;;16.17;9.90;;;17.40;99.90;;;;;;4926377;28;20046;-70
2022/08/18 01:33:38;;;;;;;16.57;10.33;;;17.40;99.90;;;;;;4912050;28;20346;-70
2022/08/18 01:36:19;;;;;;;17.13;9.67;;;17.40;99.90;;;;;;4928615;29;20055;-70
2022/08/18 01:38:49;;;;;;;12.40;9.80;;;17.40;99.90;;;;;;4910358;29;20102;-70
2022/08/18 01:41:15;;;;;;;15.90;9.83;;;17.40;99.90;;;;;;4930232;28;20039;-70
2022/08/18 01:43:41;;;;;;;15.90;9.67;;;17.40;99.90;;;;;;4928183;28;20031;-70
2022/08/18 01:46:07;;;;;;;15.20;9.97;;;17.40;99.90;;;;;;4904693;29;20184;-71
2022/08/18 01:48:35;;;;;;;14.27;9.83;;;17.40;99.90;;;;;;4922174;28;20693;-70
2022/08/18 01:51:09;;;;;;;14.17;9.73;;;17.50;99.90;;;;;;4908946;29;20118;-70
2022/08/18 01:53:36;;;;;;;16.63;9.40;;;17.50;99.90;;;;;;4928014;28;20047;-70
2022/08/18 01:56:04;;;;;;;13.63;9.83;;;17.50;99.90;;;;;;4919523;29;20051;-70
2022/08/18 01:58:34;;;;;;;16.07;10.00;;;17.50;99.90;;;;;;4931972;29;20051;-70
2022/08/18 02:01:00;;;;;;;18.23;9.47;;;17.50;99.90;;;;;;4925246;29;20054;-70
2022/08/18 02:03:36;;;;;;;15.10;9.57;;;17.50;99.90;;;;;;4933240;28;20057;-70
2022/08/18 02:06:04;;;;;;;16.80;9.90;;;17.50;99.90;;;;;;4928774;29;20126;-70
2022/08/18 02:08:30;;;;;;;15.73;9.40;;;17.40;99.90;;;;;;4939965;28;20447;-70
2022/08/18 02:10:59;;;;;;;11.60;9.60;;;17.40;99.90;;;;;;4931004;28;20050;-70
2022/08/18 02:13:25;;;;;;;19.43;10.13;;;17.40;99.90;;;;;;4931213;28;20047;-70
2022/08/18 02:15:51;;;;;;;18.13;11.00;;;17.30;99.90;;;;;;4921426;28;20431;-70
2022/08/18 02:18:22;;;;;;;17.73;9.43;;;17.30;99.90;;;;;;4925156;29;20043;-70
2022/08/18 02:20:48;;;;;;;14.93;9.83;;;17.30;99.90;;;;;;4905549;28;20079;-70
2022/08/18 02:23:14;;;;;;;16.60;10.17;;;17.20;99.90;;;;;;4921144;29;20051;-70
2022/08/18 02:25:42;;;;;;;13.93;10.43;;;17.20;99.90;;;;;;4923135;28;20047;-70
2022/08/18 02:28:08;;;;;;;15.47;10.20;;;17.20;99.90;;;;;;4908659;29;20609;-70
2022/08/18 02:30:36;;;;;;;15.80;10.90;;;17.20;99.90;;;;;;4928145;28;20035;-70
2022/08/18 02:33:03;;;;;;;14.60;10.73;;;17.30;99.90;;;;;;4930789;29;20059;-70
2022/08/18 02:35:29;;;;;;;15.60;11.43;;;17.30;99.90;;;;;;4932135;28;20043;-70
2022/08/18 02:38:02;;;;;;;18.27;10.73;;;17.30;99.90;;;;;;4933793;29;20069;-70
2022/08/18 02:40:28;;;;;;;15.97;10.00;;;17.30;99.90;;;;;;4930974;28;20210;-70
2022/08/18 02:42:54;;;;;;;14.73;9.87;;;17.30;99.90;;;;;;4917946;28;20110;-70
2022/08/18 02:45:22;;;;;;;14.03;10.80;;;17.30;99.90;;;;;;4911426;29;20048;-70
2022/08/18 02:47:53;;;;;;;15.97;10.73;;;17.30;99.90;;;;;;4902924;29;20488;-70
2022/08/18 02:50:19;;;;;;;14.43;10.23;;;17.30;99.90;;;;;;4950494;28;20425;-70
2022/08/18 02:52:44;;;;;;;15.50;10.93;;;17.30;99.90;;;;;;4923814;29;20087;-70
2022/08/18 02:55:11;;;;;;;12.97;10.13;;;17.40;99.90;;;;;;4893444;29;20505;-70
2022/08/18 02:57:44;;;;;;;16.33;10.90;;;17.40;99.90;;;;;;4869119;29;20048;-70
2022/08/18 03:00:16;;;;;;;17.20;10.47;;;17.40;99.90;;;;;;4892355;29;20079;-70
2022/08/18 03:02:47;;;;;;;14.33;10.70;;;17.40;99.90;;;;;;4912878;29;20040;-70
2022/08/18 03:05:13;;;;;;;16.30;9.60;;;17.40;99.90;;;;;;4904361;29;20485;-70
2022/08/18 03:07:38;;;;;;;13.27;9.53;;;17.40;99.90;;;;;;4892014;29;20079;-70
2022/08/18 03:10:06;;;;;;;13.10;9.40;;;17.40;99.90;;;;;;4888967;29;20042;-70
2022/08/18 03:12:31;;;;;;;15.13;9.73;;;17.40;99.90;;;;;;4896979;29;20321;-70
2022/08/18 03:14:57;;;;;;;16.73;9.53;;;17.40;99.90;;;;;;4899130;29;20047;-70
2022/08/18 03:17:23;;;;;;;17.53;10.03;;;17.40;99.90;;;;;;4887504;29;20054;-70
2022/08/18 03:19:48;;;;;;;12.00;9.30;;;17.40;99.90;;;;;;4907867;29;20051;-70
2022/08/18 03:22:14;;;;;;;10.77;9.57;;;17.40;99.90;;;;;;4875200;29;20059;-70
2022/08/18 03:24:40;;;;;;;12.83;9.30;;;17.40;99.90;;;;;;4888701;29;20044;-70
2022/08/18 03:27:06;;;;;;;14.53;9.53;;;17.40;99.90;;;;;;4902078;29;20409;-70
2022/08/18 03:29:34;;;;;;;14.60;9.97;;;17.40;99.90;;;;;;4902889;29;20477;-70
2022/08/18 03:32:01;;;;;;;12.73;8.90;;;17.40;99.90;;;;;;4897337;29;20045;-70
2022/08/18 03:34:26;;;;;;;16.80;10.07;;;17.40;99.90;;;;;;4901458;29;20722;-70
2022/08/18 03:36:52;;;;;;;19.40;10.10;;;17.40;99.90;;;;;;4891068;29;20084;-70
2022/08/18 03:39:21;;;;;;;16.30;9.33;;;17.40;99.90;;;;;;4887463;29;20131;-70
2022/08/18 03:41:49;;;;;;;14.83;9.53;;;17.40;99.90;;;;;;4900283;29;20120;-70
2022/08/18 03:44:15;;;;;;;14.37;9.53;;;17.40;99.90;;;;;;4872537;29;20634;-70
2022/08/18 03:46:43;;;;;;;18.63;9.97;;;17.40;99.90;;;;;;4877279;29;20371;-70
2022/08/18 03:49:09;;;;;;;11.70;8.80;;;17.40;99.90;;;;;;4914185;29;20540;-72
2022/08/18 03:51:35;;;;;;;12.07;9.77;;;17.40;99.90;;;;;;4911714;29;20076;-72
2022/08/18 03:54:03;;;;;;;16.40;9.30;;;17.40;99.90;;;;;;4893697;29;20055;-72
2022/08/18 03:56:37;;;;;;;12.63;9.00;;;17.40;99.90;;;;;;4907082;28;20579;-72
2022/08/18 03:59:11;;;;;;;12.43;9.07;;;17.50;99.90;;;;;;4926164;29;20405;-72
2022/08/18 04:01:40;;;;;;;16.27;9.80;;;17.50;99.90;;;;;;4948758;28;20042;-72
2022/08/18 04:04:09;;;;;;;11.97;9.43;;;17.50;99.90;;;;;;4931930;29;20362;-74
2022/08/18 04:06:44;;;;;;;12.63;9.50;;;17.50;99.90;;;;;;4916248;29;20046;-72
2022/08/18 04:09:11;;;;;;;;;;;17.50;99.90;;;;;;4927333;29;20114;-73
2022/08/18 04:11:42;;;;;;;13.63;9.00;;;17.50;99.90;;;;;;4921248;28;20429;-72
2022/08/18 04:14:08;;;;;;;14.90;9.00;;;17.50;99.90;;;;;;4931991;28;20043;-72
2022/08/18 04:16:35;;;;;;;14.67;9.77;;;17.40;99.90;;;;;;4916912;28;20035;-72
2022/08/18 04:19:03;;;;;;;15.63;9.70;;;17.50;99.90;;;;;;4909158;28;20040;-72
2022/08/18 04:21:31;;;;;;;12.87;9.97;;;17.50;99.90;;;;;;4899400;29;20044;-72
2022/08/18 04:24:03;;;;;;;16.40;10.37;;;17.50;99.90;;;;;;4910733;29;20094;-72
2022/08/18 04:26:34;;;;;;;15.33;10.23;;;17.50;99.90;;;;;;4927518;29;20090;-72
2022/08/18 04:29:02;;;;;;;13.67;9.63;;;17.60;99.90;;;;;;4923553;29;20044;-72
2022/08/18 04:31:29;;;;;;;15.03;9.63;;;17.60;99.90;;;;;;4917162;29;20043;-72
2022/08/18 04:33:57;;;;;;;12.27;9.27;;;17.60;99.90;;;;;;4934024;28;20117;-72
2022/08/18 04:36:23;;;;;;;13.87;9.97;;;17.60;99.90;;;;;;4898505;29;20086;-72
2022/08/18 04:38:49;;;;;;;15.00;8.97;;;17.60;99.90;;;;;;4910161;29;20047;-72
2022/08/18 04:41:15;;;;;;;12.00;9.30;;;17.60;99.90;;;;;;4908108;28;20161;-72
2022/08/18 04:43:41;;;;;;;15.40;10.07;;;17.60;99.90;;;;;;4912461;28;20093;-72
2022/08/18 04:46:07;;;;;;;14.70;9.23;;;17.60;99.90;;;;;;4914489;28;20094;-72
2022/08/18 04:48:40;;;;;;;14.90;9.80;;;17.60;99.90;;;;;;4933400;28;20467;-72
2022/08/18 04:51:09;;;;;;;13.20;8.83;;;17.60;99.90;;;;;;4907923;29;20539;-72
2022/08/18 04:53:44;;;;;;;16.13;8.43;;;17.70;99.90;;;;;;4916716;28;20554;-72
2022/08/18 04:56:28;;;;;;;13.30;8.03;;;17.70;99.90;;;;;;4897926;29;20052;-73
2022/08/18 04:59:03;;;;;;;11.60;7.83;;;17.80;99.90;;;;;;4944525;28;20045;-72
2022/08/18 05:01:30;;;;;;;11.80;7.18;;;17.80;99.90;;;;;;4931107;28;20106;-72
2022/08/18 05:04:00;;;;;;;12.53;7.63;;;17.80;99.90;;;;;;4917203;29;20504;-72
2022/08/18 05:06:27;;;;;;;13.07;8.23;;;17.90;99.90;;;;;;4898756;29;20035;-72
2022/08/18 05:08:55;;;;;;;13.17;7.83;;;17.90;99.90;;;;;;4946520;28;20043;-72
2022/08/18 05:11:23;;;;;;;17.50;8.23;;;17.90;99.90;;;;;;4919347;29;20078;-72
2022/08/18 05:13:51;;;;;;;11.90;7.73;;;17.90;99.90;;;;;;4932658;28;20395;-72
2022/08/18 05:16:17;;;;;;;15.93;8.27;;;18.00;99.90;;;;;;4917885;28;20051;-72
2022/08/18 05:18:43;;;;;;;12.97;7.87;;;17.90;99.90;;;;;;4900736;29;20056;-72
2022/08/18 05:21:14;;;;;;;11.80;7.43;;;17.90;99.90;;;;;;4928723;29;20120;-72
2022/08/18 05:23:44;;;;;;;9.97;7.10;;;18.00;99.90;;;;;;4910086;29;20050;-72
2022/08/18 05:26:13;;;;;;;10.83;7.27;;;18.00;99.90;;;;;;4911816;29;20043;-72
2022/08/18 05:28:39;;;;;;;10.60;7.13;;;18.00;99.90;;;;;;4921188;28;20058;-72
2022/08/18 05:31:17;;;;;;;13.13;7.67;;;18.10;99.90;;;;;;4893119;29;20043;-72
2022/08/18 05:33:44;;;;;;;11.77;7.10;;;18.10;99.90;;;;;;4913812;28;20047;-72
2022/08/18 05:36:46;;;;;;;13.43;7.40;;;18.10;99.90;;;;;;4913976;29;20047;-72
2022/08/18 05:39:20;;;;;;;13.87;7.40;;;18.10;99.90;;;;;;4910128;29;20043;-71
2022/08/18 05:42:02;;;;;;;11.60;7.50;;;18.20;99.90;;;;;;4923186;29;20186;-72
2022/08/18 05:44:31;;;;;;;12.33;7.20;;;18.20;99.90;;;;;;4906164;29;20541;-72
2022/08/18 05:47:18;;;;;;;13.37;6.43;;;18.20;99.90;;;;;;4898063;29;20040;-72
2022/08/18 05:49:47;;;;;;;13.33;5.60;;;18.20;99.90;;;;;;4921962;29;20145;-72
2022/08/18 05:52:31;;;;;;;10.03;6.40;;;18.20;99.90;;;;;;4906894;29;20035;-72
2022/08/18 05:58:14;;;;;;;9.63;4.83;;;18.20;99.90;;;;;;4913878;28;20186;-72
2022/08/18 06:00:45;;;;;;;9.70;5.27;;;18.20;99.90;;;;;;4904279;29;20058;-72
2022/08/18 06:03:26;;;;;;;12.60;5.27;;;18.30;99.90;;;;;;4930628;28;20039;-72
2022/08/18 06:05:57;;;;;;;10.67;4.83;;;18.40;99.90;;;;;;4931371;29;20343;-72
2022/08/18 06:08:30;;;;;;;11.50;5.20;;;18.40;99.90;;;;;;4926432;28;20080;-72
2022/08/18 06:10:56;;;;;;;10.43;5.13;;;18.60;99.90;;;;;;4930832;28;20042;-72
2022/08/18 06:13:22;;;;;;;11.13;5.20;;;18.70;99.90;;;;;;4914796;28;20053;-72
2022/08/18 06:15:56;;;;;;;10.57;4.60;;;18.90;99.90;;;;;;4928207;29;20535;-72
2022/08/18 06:18:46;;;;;;;8.65;4.07;;;19.10;99.90;;;;;;4912295;28;20834;-72
2022/08/18 06:21:26;;;;;;;10.53;4.33;;;19.20;99.90;;;;;;4933739;28;20514;-72
2022/08/18 06:24:01;;;;;;;8.73;3.90;;;19.20;99.90;;;;;;4928946;28;20136;-72
2022/08/18 06:26:33;;;;;;;;;;;19.20;99.90;;;;;;4912891;28;20098;-72
2022/08/18 06:29:17;;;;;;;11.50;3.97;;;19.20;99.90;;;;;;4931881;29;19929;-72
2022/08/18 06:32:00;;;;;;;12.83;3.63;;;19.30;99.90;;;;;;4930081;29;20053;-72
2022/08/18 06:34:50;;;;;;;6.70;3.37;;;19.30;99.90;;;;;;4934723;28;20055;-72
2022/08/18 06:37:29;;;;;;;7.97;2.90;;;19.30;99.90;;;;;;4933575;28;20097;-73
2022/08/18 06:39:56;;;;;;;6.73;2.60;;;19.20;99.90;;;;;;4926013;29;20040;-73
2022/08/18 06:42:29;;;;;;;7.13;2.20;;;19.30;99.90;;;;;;4914993;28;20130;-72
2022/08/18 06:45:01;;;;;;;6.60;2.50;;;19.40;99.90;;;;;;4928444;29;20082;-72
2022/08/18 06:47:48;;;;;;;4.73;2.60;;;19.50;99.90;;;;;;4913993;28;20272;-72
2022/08/18 06:50:26;;;;;;;8.07;1.83;;;19.60;99.90;;;;;;4945161;28;20153;-72
2022/08/18 06:53:07;;;;;;;5.60;1.60;;;19.70;99.90;;;;;;4914459;29;20661;-72
2022/08/18 06:55:36;;;;;;;4.03;1.27;;;19.60;99.90;;;;;;4927572;29;20134;-72
2022/08/18 06:58:06;;;;;;;4.83;1.30;;;19.60;99.90;;;;;;4922972;28;20057;-72
2022/08/18 07:00:35;;;;;;;4.17;1.60;;;19.50;99.90;;;;;;4904778;29;20051;-72
2022/08/18 07:03:08;;;;;;;3.07;1.33;;;19.60;99.90;;;;;;4926848;28;20448;-72
2022/08/18 07:05:35;;;;;;;5.00;1.43;;;19.50;99.90;;;;;;4920630;29;20040;-72
2022/08/18 07:08:11;;;;;;;7.13;1.70;;;19.40;99.90;;;;;;4941164;28;20476;-72
2022/08/18 07:10:45;;;;;;;4.40;1.63;;;19.40;99.90;;;;;;4929138;29;20078;-72
2022/08/18 07:13:11;;;;;;;5.88;2.38;;;19.50;99.90;;;;;;4928518;29;20035;-72
2022/08/18 07:15:37;;;;;;;5.03;2.10;;;19.50;99.90;;;;;;4926952;29;20095;-72
2022/08/18 07:18:06;;;;;;;6.00;2.13;;;19.60;99.90;;;;;;4913537;28;20046;-72
2022/08/18 07:20:45;;;;;;;4.93;2.10;;;19.60;99.90;;;;;;4930264;28;20047;-72
2022/08/18 07:23:29;;;;;;;4.60;2.20;;;19.70;99.90;;;;;;4913681;29;20046;-72
2022/08/18 07:26:10;;;;;;;4.72;2.55;;;19.80;99.90;;;;;;4927647;29;20396;-73
2022/08/18 07:28:47;;;;;;;8.77;2.80;;;19.80;99.90;;;;;;4912669;29;20079;-72
2022/08/18 07:31:16;;;;;;;5.40;2.70;;;19.90;99.90;;;;;;4926285;28;20448;-72
2022/08/18 07:33:47;;;;;;;4.87;2.07;;;19.90;99.90;;;;;;4910382;28;20047;-72
2022/08/18 07:36:15;;;;;;;4.47;1.83;;;19.90;99.90;;;;;;4915781;28;20055;-72
2022/08/18 07:38:55;;;;;;;4.87;1.90;;;19.90;99.90;;;;;;4915676;29;20039;-72
2022/08/18 07:41:27;;;;;;;5.67;2.27;;;19.90;99.90;;;;;;4925110;29;20431;-72
2022/08/18 07:43:59;;;;;;;6.90;1.83;;;19.90;99.90;;;;;;4927748;29;20050;-72
2022/08/18 07:47:05;;;;;;;3.93;1.73;;;19.90;99.90;;;;;;4946641;28;20062;-72
2022/08/18 07:49:35;;;;;;;3.23;1.80;;;20.10;99.90;;;;;;4923454;29;20126;-72
2022/08/18 07:52:01;;;;;;;6.93;1.50;;;20.10;99.90;;;;;;4928393;29;20396;-72
2022/08/18 07:54:35;;;;;;;3.37;1.70;;;20.10;99.90;;;;;;4924674;29;20146;-72
2022/08/18 07:57:09;;;;;;;;;;;20.10;99.90;;;;;;4932550;28;20063;-72
2022/08/18 07:59:48;;;;;;;5.53;2.20;;;20.10;99.90;;;;;;4916973;28;20009;-72
2022/08/18 08:02:14;;;;;;;5.00;1.70;;;20.00;99.90;;;;;;4925903;28;20460;-71
2022/08/18 08:05:14;;;;;;;5.93;1.57;;;20.00;99.90;;;;;;4917860;28;20055;-72
2022/08/18 08:08:06;;;;;;;3.10;1.37;;;20.10;99.90;;;;;;4920985;29;20075;-71
2022/08/18 08:10:38;;;;;;;2.17;1.00;;;20.30;99.90;;;;;;4909466;29;20195;-72
2022/08/18 08:13:16;;;;;;;3.83;1.20;;;20.30;99.90;;;;;;4949255;28;20041;-71
2022/08/18 08:16:00;;;;;;;3.70;1.50;;;20.40;99.90;;;;;;4901195;28;20125;-72
2022/08/18 08:18:34;;;;;;;2.20;1.23;;;20.40;99.90;;;;;;4924857;28;20043;-71
2022/08/18 08:21:07;;;;;;;1.50;0.90;;;20.40;99.90;;;;;;4915287;29;20051;-71
2022/08/18 08:23:54;;;;;;;1.50;0.77;;;20.40;99.90;;;;;;4930030;29;20043;-71
2022/08/18 08:26:29;;;;;;;2.47;0.90;;;20.40;99.90;;;;;;4926714;28;20047;-72
2022/08/18 08:29:03;;;;;;;2.42;0.68;;;20.40;99.90;;;;;;4932814;28;20611;-71
2022/08/18 08:31:38;;;;;;;2.17;0.82;;;20.50;99.90;;;;;;4930222;29;20035;-72
2022/08/18 08:34:04;;;;;;;;;;;20.50;99.90;;;;;;4928369;28;20055;-72
2022/08/18 08:36:34;;;;;;;1.50;0.80;;;20.40;99.50;;;;;;4926300;29;19928;-71
2022/08/18 08:39:10;;;;;;;2.13;0.87;;;20.40;99.90;;;;;;4931236;29;20094;-72
2022/08/18 08:41:42;;;;;;;2.40;0.90;;;20.40;99.90;;;;;;4913154;28;20498;-71
2022/08/18 08:44:14;;;;;;;1.87;1.00;;;20.50;99.90;;;;;;4928044;28;20091;-71
2022/08/18 08:47:01;;;;;;;3.40;1.43;;;20.60;99.90;;;;;;4929845;28;20039;-72
2022/08/18 08:49:48;;;;;;;2.40;1.00;;;20.70;99.90;;;;;;4926557;29;20075;-73
2022/08/18 08:52:28;;;;;;;2.63;1.07;;;20.80;99.30;;;;;;4924627;28;20488;-72
2022/08/18 08:55:14;;;;;;;2.83;0.97;;;20.90;99.90;;;;;;4927629;28;20205;-72
2022/08/18 08:57:54;;;;;;;1.70;0.83;;;20.90;99.20;;;;;;4924856;29;20142;-71
2022/08/18 09:00:20;;;;;;;2.00;0.80;;;20.90;98.90;;;;;;4934137;28;20119;-72
2022/08/18 09:03:09;;;;;;;2.33;1.37;;;20.80;98.00;;;;;;4912242;28;20047;-72
2022/08/18 09:05:55;;;;;;;4.23;1.67;;;20.70;97.90;;;;;;4914449;29;20075;-72
2022/08/18 09:08:42;;;;;;;1.87;0.83;;;20.50;97.80;;;;;;4911112;28;20606;-71
2022/08/18 09:11:17;;;;;;;4.60;1.07;;;20.40;96.60;;;;;;4930046;28;20050;-72
2022/08/18 09:13:58;;;;;;;2.93;1.10;;;20.30;97.90;;;;;;4912592;29;20054;-71
2022/08/18 09:16:41;;;;;;;3.30;1.10;;;20.30;97.30;;;;;;4927388;28;20043;-72
2022/08/18 09:19:32;;;;;;;4.37;1.10;;;20.30;96.90;;;;;;4939784;28;20423;-72
2022/08/18 09:22:02;;;;;;;2.07;1.10;;;20.40;97.90;;;;;;4912117;29;20043;-72
2022/08/18 09:24:43;;;;;;;1.40;0.80;;;20.50;96.90;;;;;;4930765;29;20039;-72
2022/08/18 09:27:41;;;;;;;4.17;1.10;;;20.50;96.80;;;;;;4907031;28;20050;-72
2022/08/18 09:30:27;;;;;;;3.03;0.90;;;20.60;96.80;;;;;;4926199;28;20040;-72
2022/08/18 09:33:23;;;;;;;2.57;1.10;;;20.60;96.50;;;;;;4929844;28;20492;-72
2022/08/18 09:36:05;;;;;;;5.70;1.27;;;20.70;96.30;;;;;;4881598;29;20079;-72
2022/08/18 09:41:36;;;;;;;4.03;1.20;;;20.80;95.40;;;;;;4928286;29;20043;-71
2022/08/18 09:44:09;;;;;;;4.17;1.33;;;21.00;96.80;;;;;;4924057;28;20511;-72
2022/08/18 09:46:47;;;;;;;1.87;1.00;;;21.10;94.80;;;;;;4924450;28;20043;-72
2022/08/18 09:49:21;;;;;;;3.20;1.23;;;21.20;94.90;;;;;;4930726;29;20603;-72
2022/08/18 09:51:49;;;;;;;2.15;0.70;;;21.30;95.10;;;;;;4928693;28;20042;-72
2022/08/18 09:54:17;;;;;;;3.13;0.80;;;21.50;94.00;;;;;;4912505;28;20047;-72
2022/08/18 09:56:49;;;;;;;2.87;1.03;;;21.60;94.40;;;;;;4925493;29;20047;-72
2022/08/18 09:59:34;;;;;;;2.40;0.90;;;21.70;92.20;;;;;;4922458;29;20047;-72
2022/08/18 10:02:05;;;;;;;4.32;0.90;;;21.80;91.00;;;;;;4910714;29;20043;-72
2022/08/18 10:04:51;;;;;;;3.43;0.70;;;22.00;91.40;;;;;;4932713;28;20138;-72
2022/08/18 10:07:16;;;;;;;;;;;22.20;91.20;;;;;;4913504;29;20043;-73
2022/08/18 10:09:54;;;;;;;4.00;0.73;;;22.40;89.40;;;;;;4930208;28;20414;-72
2022/08/18 10:12:34;;;;;;;2.60;0.73;;;22.60;90.10;;;;;;4933140;28;20043;-72
2022/08/18 10:15:18;;;;;;;2.77;0.50;;;22.70;88.50;;;;;;4922736;29;20050;-72
2022/08/18 10:17:49;;;;;;;1.50;0.80;;;22.70;86.70;;;;;;4936621;28;20043;-72
2022/08/18 10:20:41;;;;;;;2.37;0.90;;;22.70;86.00;;;;;;4928409;28;20132;-72
2022/08/18 10:23:07;;;;;;;2.67;1.03;;;22.70;86.50;;;;;;4922250;29;20055;-72
2022/08/18 10:25:45;;;;;;;2.17;0.87;;;22.70;86.00;;;;;;4911679;28;20043;-72
2022/08/18 10:28:49;;;;;;;3.77;1.00;;;22.70;85.00;;;;;;4919163;28;20063;-72
2022/08/18 10:31:14;;;;;;;1.90;0.97;;;22.70;84.20;;;;;;4927504;29;20334;-72
2022/08/18 10:34:01;;;;;;;1.53;0.70;;;22.70;85.90;;;;;;4941322;28;20035;-72
2022/08/18 10:36:45;;;;;;;2.33;0.80;;;22.80;85.20;;;;;;4945837;28;20050;-72
2022/08/18 10:39:23;;;;;;;5.20;0.93;;;23.00;85.10;;;;;;4930016;29;20053;-71
2022/08/18 10:42:27;;;;;;;2.57;0.70;;;23.20;84.20;;;;;;4914271;28;20035;-72
2022/08/18 10:45:16;;;;;;;3.43;0.60;;;23.30;84.40;;;;;;4927130;29;20137;-72
2022/08/18 10:47:42;;;;;;;2.57;1.10;;;23.30;84.50;;;;;;4926310;29;20044;-71
2022/08/18 10:50:20;;;;;;;1.97;0.40;;;23.30;84.40;;;;;;4912901;28;20054;-71
2022/08/18 10:53:23;;;;;;;1.50;0.60;;;23.30;83.50;;;;;;4923918;29;20074;-71
2022/08/18 10:55:59;;;;;;;1.67;0.60;;;23.30;81.40;;;;;;4921120;29;20611;-71
2022/08/18 10:58:43;;;;;;;1.93;0.87;;;23.30;84.00;;;;;;4913151;28;20049;-72
2022/08/18 11:01:26;;;;;;;1.95;0.75;;;23.40;80.70;;;;;;4926961;29;20106;-72
2022/08/18 11:04:06;;;;;;;1.83;0.67;;;23.40;81.50;;;;;;4929049;29;20109;-72
2022/08/18 11:06:42;;;;;;;1.77;0.60;;;23.30;81.20;;;;;;4920687;29;20039;-72
2022/08/18 11:09:10;;;;;;;1.40;0.70;;;23.50;82.50;;;;;;4926598;29;20543;-72
2022/08/18 11:11:51;;;;;;;4.17;0.77;;;23.50;82.20;;;;;;4928205;28;20054;-72
2022/08/18 11:14:59;;;;;;;3.43;0.70;;;23.40;80.40;;;;;;4919016;28;20158;-72
2022/08/18 11:17:46;;;;;;;3.33;0.50;;;23.30;78.50;;;;;;4916415;28;20054;-72
2022/08/18 11:20:15;;;;;;;2.23;0.80;;;23.30;81.40;;;;;;4918800;28;20042;-72
2022/08/18 11:22:51;;;;;;;1.23;0.70;;;23.50;81.50;;;;;;4929464;28;20043;-72
2022/08/18 11:25:28;;;;;;;2.57;0.80;;;23.80;81.20;;;;;;4923124;29;20125;-71
2022/08/18 11:27:55;;;;;;;2.67;0.70;;;23.90;81.50;;;;;;4915823;28;20070;-71
2022/08/18 11:30:23;;;;;;;1.70;0.70;;;23.90;79.90;;;;;;4910526;28;20126;-72
2022/08/18 11:32:50;;;;;;;2.60;0.80;;;23.90;80.30;;;;;;4905946;28;20047;-72
2022/08/18 11:35:20;;;;;;;4.73;0.87;;;23.80;80.00;;;;;;4897239;29;20062;-72
2022/08/18 11:37:57;;;;;;;1.97;0.63;;;23.70;80.00;;;;;;4928504;28;20546;-71
2022/08/18 11:40:43;;;;;;;1.53;0.93;;;23.70;78.80;;;;;;4902192;28;20051;-71
2022/08/18 11:43:09;;;;;;;1.40;0.80;;;23.70;80.80;;;;;;4925962;28;20060;-72
2022/08/18 11:46:00;;;;;;;2.97;0.90;;;23.80;80.50;;;;;;4919570;29;20169;-72
2022/08/18 11:48:47;;;;;;;1.60;0.50;;;24.00;79.60;;;;;;4918923;28;20039;-71
2022/08/18 11:51:19;;;;;;;2.47;0.70;;;24.30;78.50;;;;;;4909139;29;20035;-72
2022/08/18 11:53:48;;;;;;;2.13;0.80;;;24.40;78.30;;;;;;4925956;29;20405;-72
2022/08/18 11:56:19;;;;;;;1.60;0.70;;;24.40;78.30;;;;;;4925109;28;20481;-72
2022/08/18 11:58:50;;;;;;;2.33;0.70;;;24.30;76.60;;;;;;4913828;29;20050;-71
2022/08/18 12:01:47;;;;;;;2.47;0.80;;;24.20;76.80;;;;;;4930359;28;20047;-71
2022/08/18 12:04:13;;;;;;;1.23;0.67;;;24.20;75.70;;;;;;4906932;28;20126;-73
2022/08/18 12:06:54;;;;;;;4.47;1.00;;;24.20;77.80;;;;;;4923065;29;20051;-71
2022/08/18 12:09:25;;;;;;;1.60;0.77;;;24.30;77.50;;;;;;4923955;28;20075;-72
2022/08/18 12:11:57;;;;;;;2.73;0.90;;;24.30;75.20;;;;;;4916812;29;20345;-72
2022/08/18 12:14:27;;;;;;;2.27;0.63;;;24.40;76.60;;;;;;4919431;28;20134;-72
2022/08/18 12:16:53;;;;;;;2.47;0.93;;;24.40;76.40;;;;;;4901829;29;20044;-71
2022/08/18 12:19:20;;;;;;;2.13;0.73;;;24.40;76.60;;;;;;4930124;28;20419;-71
2022/08/18 12:21:49;;;;;;;1.53;0.67;;;24.60;76.70;;;;;;4927002;29;20511;-72
2022/08/18 12:24:29;;;;;;;1.97;0.70;;;24.70;75.30;;;;;;4930693;28;20055;-72
2022/08/18 12:26:57;;;;;;;1.80;0.50;;;24.80;75.20;;;;;;4932437;29;20407;-71
2022/08/18 12:29:24;;;;;;;2.30;0.80;;;24.90;75.80;;;;;;4911982;29;20077;-72
2022/08/18 12:31:52;;;;;;;1.47;0.80;;;24.80;75.00;;;;;;4912833;28;20047;-71
2022/08/18 12:34:22;;;;;;;2.27;0.80;;;24.80;75.10;;;;;;4930629;28;20040;-71
2022/08/18 12:36:50;;;;;;;2.80;0.60;;;24.80;75.00;;;;;;4911144;28;20098;-71
2022/08/18 12:39:17;;;;;;;1.90;0.80;;;24.80;75.40;;;;;;4912721;29;20035;-71
2022/08/18 12:41:43;;;;;;;1.77;1.10;;;24.80;74.20;;;;;;4930450;28;20074;-71
2022/08/18 12:44:09;;;;;;;2.00;0.97;;;24.80;73.40;;;;;;4917827;28;20105;-71
2022/08/18 12:46:35;;;;;;;1.30;0.80;;;24.70;74.10;;;;;;4912844;29;20130;-71
2022/08/18 12:49:03;;;;;;;2.40;0.67;;;24.80;73.90;;;;;;4924940;29;20119;-70
2022/08/18 12:51:29;;;;;;;1.67;0.90;;;24.80;72.60;;;;;;4930336;29;20041;-70
2022/08/18 12:53:55;;;;;;;2.03;0.87;;;24.80;72.50;;;;;;4914947;29;20047;-71
2022/08/18 12:56:24;;;;;;;1.30;0.93;;;24.90;73.40;;;;;;4914599;28;20050;-70
2022/08/18 12:58:50;;;;;;;2.07;1.10;;;24.80;72.10;;;;;;4912912;29;20118;-71
2022/08/18 13:01:18;;;;;;;2.03;0.90;;;24.60;72.10;;;;;;4930195;28;20051;-71
2022/08/18 13:03:45;;;;;;;2.40;0.87;;;24.50;71.70;;;;;;4930864;29;20428;-71
2022/08/18 13:06:12;;;;;;;2.43;0.97;;;24.40;72.60;;;;;;4905482;28;20063;-70
2022/08/18 13:08:38;;;;;;;2.40;1.30;;;24.50;71.70;;;;;;4912668;29;20050;-71
2022/08/18 13:11:09;;;;;;;2.60;1.17;;;24.40;72.10;;;;;;4926098;28;20039;-72
2022/08/18 13:13:36;;;;;;;2.13;1.10;;;24.40;70.20;;;;;;4891634;28;20106;-71
2022/08/18 13:16:03;;;;;;;1.87;0.80;;;24.30;70.50;;;;;;4931276;28;20456;-72
2022/08/18 13:18:29;;;;;;;3.23;0.90;;;24.20;71.00;;;;;;4911984;28;20059;-72
2022/08/18 13:20:59;;;;;;;1.60;1.00;;;24.20;71.00;;;;;;4913886;29;20436;-71
2022/08/18 13:23:29;;;;;;;1.73;1.07;;;24.40;70.80;;;;;;4926486;29;20048;-71
2022/08/18 13:25:56;;;;;;;2.73;1.10;;;24.70;70.70;;;;;;4928788;29;20047;-71